sensor_id;sensor_type;location;lat;lon;timestamp;temperature;humidity
47616;DHT22;69146;52.266;7.000;2023-07-31T00:02:36;15.50;99.90
47616;DHT22;69146;52.266;7.000;2023-07-31T00:05:21;15.50;99.90
47616;DHT22;69146;52.266;7.000;2023-07-31T00:08:05;15.50;99.90
47616;DHT22;69146;52.266;7.000;2023-07-31T00:10:51;15.50;99.90
47616;DHT22;69146;52.266;7.000;2023-07-31T00:13:36;15.50;99.90
47616;DHT22;69146;52.266;7.000;2023-07-31T00:16:21;15.40;99.90
47616;DHT22;69146;52.266;7.000;2023-07-31T00:19:05;15.40;99.90
47616;DHT22;69146;52.266;7.000;2023-07-31T00:21:49;15.30;99.90
47616;DHT22;69146;52.266;7.000;2023-07-31T00:24:34;15.30;99.90
47616;DHT22;69146;52.266;7.000;2023-07-31T00:27:18;15.30;99.90
47616;DHT22;69146;52.266;7.000;2023-07-31T00:30:05;15.40;99.90
47616;DHT22;69146;52.266;7.000;2023-07-31T00:32:49;15.30;99.90
47616;DHT22;69146;52.266;7.000;2023-07-31T00:35:34;15.30;99.90
47616;DHT22;69146;52.266;7.000;2023-07-31T00:38:19;15.30;99.90
47616;DHT22;69146;52.266;7.000;2023-07-31T00:41:03;15.30;99.90
47616;DHT22;69146;52.266;7.000;2023-07-31T00:43:48;15.30;99.90
47616;DHT22;69146;52.266;7.000;2023-07-31T00:46:34;15.20;99.90
47616;DHT22;69146;52.266;7.000;2023-07-31T00:49:18;15.30;99.90
47616;DHT22;69146;52.266;7.000;2023-07-31T00:52:03;15.30;99.90
47616;DHT22;69146;52.266;7.000;2023-07-31T00:54:48;15.30;99.90
47616;DHT22;69146;52.266;7.000;2023-07-31T00:57:32;15.20;99.90
47616;DHT22;69146;52.266;7.000;2023-07-31T01:00:17;15.20;99.90
47616;DHT22;69146;52.266;7.000;2023-07-31T01:03:03;15.20;99.90
47616;DHT22;69146;52.266;7.000;2023-07-31T01:05:49;15.20;99.90
47616;DHT22;69146;52.266;7.000;2023-07-31T01:08:40;15.10;99.90
47616;DHT22;69146;52.266;7.000;2023-07-31T01:11:25;15.10;99.90
47616;DHT22;69146;52.266;7.000;2023-07-31T01:14:11;15.10;99.90
47616;DHT22;69146;52.266;7.000;2023-07-31T01:16:56;15.10;99.90
47616;DHT22;69146;52.266;7.000;2023-07-31T01:19:41;15.10;99.90
47616;DHT22;69146;52.266;7.000;2023-07-31T01:22:30;15.10;99.90
47616;DHT22;69146;52.266;7.000;2023-07-31T01:25:22;15.10;99.90
47616;DHT22;69146;52.266;7.000;2023-07-31T01:28:17;15.20;99.90
47616;DHT22;69146;52.266;7.000;2023-07-31T01:31:03;15.20;99.90
47616;DHT22;69146;52.266;7.000;2023-07-31T01:33:50;15.20;99.90
47616;DHT22;69146;52.266;7.000;2023-07-31T01:36:36;15.30;99.90
47616;DHT22;69146;52.266;7.000;2023-07-31T01:39:21;15.20;99.90
47616;DHT22;69146;52.266;7.000;2023-07-31T01:42:06;15.20;99.90
47616;DHT22;69146;52.266;7.000;2023-07-31T01:44:52;15.20;99.90
47616;DHT22;69146;52.266;7.000;2023-07-31T01:47:37;15.20;99.90
47616;DHT22;69146;52.266;7.000;2023-07-31T01:50:21;15.20;99.90
47616;DHT22;69146;52.266;7.000;2023-07-31T01:53:06;15.20;99.90
47616;DHT22;69146;52.266;7.000;2023-07-31T01:55:50;15.20;99.90
47616;DHT22;69146;52.266;7.000;2023-07-31T01:58:34;15.20;99.90
47616;DHT22;69146;52.266;7.000;2023-07-31T02:01:20;15.20;99.90
47616;DHT22;69146;52.266;7.000;2023-07-31T02:04:04;15.20;99.90
47616;DHT22;69146;52.266;7.000;2023-07-31T02:06:49;15.20;99.90
47616;DHT22;69146;52.266;7.000;2023-07-31T02:09:33;15.20;99.90
47616;DHT22;69146;52.266;7.000;2023-07-31T02:12:17;15.20;99.90
47616;DHT22;69146;52.266;7.000;2023-07-31T02:15:02;15.30;99.90
47616;DHT22;69146;52.266;7.000;2023-07-31T02:17:47;15.20;99.90
47616;DHT22;69146;52.266;7.000;2023-07-31T02:20:33;15.30;99.90
47616;DHT22;69146;52.266;7.000;2023-07-31T02:23:17;15.20;99.90
47616;DHT22;69146;52.266;7.000;2023-07-31T02:26:02;15.30;99.90
47616;DHT22;69146;52.266;7.000;2023-07-31T02:28:47;15.30;99.90
47616;DHT22;69146;52.266;7.000;2023-07-31T02:31:31;15.30;99.90
47616;DHT22;69146;52.266;7.000;2023-07-31T02:34:17;15.30;99.90
47616;DHT22;69146;52.266;7.000;2023-07-31T02:37:01;15.30;99.90
47616;DHT22;69146;52.266;7.000;2023-07-31T02:39:45;15.20;99.90
47616;DHT22;69146;52.266;7.000;2023-07-31T02:42:30;15.30;99.90
47616;DHT22;69146;52.266;7.000;2023-07-31T02:45:14;15.40;99.90
47616;DHT22;69146;52.266;7.000;2023-07-31T02:47:59;15.40;99.90
47616;DHT22;69146;52.266;7.000;2023-07-31T02:50:44;15.40;99.90
47616;DHT22;69146;52.266;7.000;2023-07-31T02:53:28;15.50;99.90
47616;DHT22;69146;52.266;7.000;2023-07-31T02:56:13;15.50;99.90
47616;DHT22;69146;52.266;7.000;2023-07-31T02:58:57;15.50;99.90
47616;DHT22;69146;52.266;7.000;2023-07-31T03:01:42;15.60;99.90
47616;DHT22;69146;52.266;7.000;2023-07-31T03:04:27;15.60;99.90
47616;DHT22;69146;52.266;7.000;2023-07-31T03:07:12;15.60;99.90
47616;DHT22;69146;52.266;7.000;2023-07-31T03:09:57;15.60;99.90
47616;DHT22;69146;52.266;7.000;2023-07-31T03:12:41;15.60;99.90
47616;DHT22;69146;52.266;7.000;2023-07-31T03:15:26;15.70;99.90
47616;DHT22;69146;52.266;7.000;2023-07-31T03:18:10;15.70;99.90
47616;DHT22;69146;52.266;7.000;2023-07-31T03:20:55;15.70;99.90
47616;DHT22;69146;52.266;7.000;2023-07-31T03:23:41;15.70;99.90
47616;DHT22;69146;52.266;7.000;2023-07-31T03:26:27;15.70;99.90
47616;DHT22;69146;52.266;7.000;2023-07-31T03:29:12;15.70;99.90
47616;DHT22;69146;52.266;7.000;2023-07-31T03:31:56;15.70;99.90
47616;DHT22;69146;52.266;7.000;2023-07-31T03:34:40;15.70;99.90
47616;DHT22;69146;52.266;7.000;2023-07-31T03:37:25;15.70;99.90
47616;DHT22;69146;52.266;7.000;2023-07-31T03:40:12;15.70;99.90
47616;DHT22;69146;52.266;7.000;2023-07-31T03:42:56;15.70;99.90
47616;DHT22;69146;52.266;7.000;2023-07-31T03:45:41;15.70;99.90
47616;DHT22;69146;52.266;7.000;2023-07-31T03:48:25;15.70;99.90
47616;DHT22;69146;52.266;7.000;2023-07-31T03:51:09;15.70;99.90
47616;DHT22;69146;52.266;7.000;2023-07-31T03:53:54;15.70;99.90
47616;DHT22;69146;52.266;7.000;2023-07-31T03:56:40;15.70;99.90
47616;DHT22;69146;52.266;7.000;2023-07-31T03:59:24;15.70;99.90
47616;DHT22;69146;52.266;7.000;2023-07-31T04:02:09;15.70;99.90
47616;DHT22;69146;52.266;7.000;2023-07-31T04:04:53;15.80;99.90
47616;DHT22;69146;52.266;7.000;2023-07-31T04:07:38;15.70;99.90
47616;DHT22;69146;52.266;7.000;2023-07-31T04:10:22;15.70;99.90
47616;DHT22;69146;52.266;7.000;2023-07-31T04:13:08;15.70;99.90
47616;DHT22;69146;52.266;7.000;2023-07-31T04:15:52;15.70;99.90
47616;DHT22;69146;52.266;7.000;2023-07-31T04:18:38;15.70;99.90
47616;DHT22;69146;52.266;7.000;2023-07-31T04:21:22;15.70;99.90
47616;DHT22;69146;52.266;7.000;2023-07-31T04:24:06;15.70;99.90
47616;DHT22;69146;52.266;7.000;2023-07-31T04:26:51;15.70;99.90
47616;DHT22;69146;52.266;7.000;2023-07-31T04:29:37;15.70;99.90
47616;DHT22;69146;52.266;7.000;2023-07-31T04:32:21;15.80;99.90
47616;DHT22;69146;52.266;7.000;2023-07-31T04:35:05;15.80;99.90
47616;DHT22;69146;52.266;7.000;2023-07-31T04:37:50;15.90;99.90
47616;DHT22;69146;52.266;7.000;2023-07-31T04:40:35;15.90;99.90
47616;DHT22;69146;52.266;7.000;2023-07-31T04:43:19;15.90;99.90
47616;DHT22;69146;52.266;7.000;2023-07-31T04:46:05;15.90;99.90
47616;DHT22;69146;52.266;7.000;2023-07-31T04:48:50;15.90;99.90
47616;DHT22;69146;52.266;7.000;2023-07-31T04:51:34;15.90;99.90
47616;DHT22;69146;52.266;7.000;2023-07-31T04:54:19;15.90;99.90
47616;DHT22;69146;52.266;7.000;2023-07-31T04:57:03;15.90;99.90
47616;DHT22;69146;52.266;7.000;2023-07-31T04:59:48;15.90;99.90
47616;DHT22;69146;52.266;7.000;2023-07-31T05:02:33;15.80;99.90
47616;DHT22;69146;52.266;7.000;2023-07-31T05:05:18;15.80;99.90
47616;DHT22;69146;52.266;7.000;2023-07-31T05:08:02;15.80;99.90
47616;DHT22;69146;52.266;7.000;2023-07-31T05:10:47;15.80;99.90
47616;DHT22;69146;52.266;7.000;2023-07-31T05:13:31;15.80;99.90
47616;DHT22;69146;52.266;7.000;2023-07-31T05:16:16;15.80;99.90
47616;DHT22;69146;52.266;7.000;2023-07-31T05:19:01;15.80;99.90
47616;DHT22;69146;52.266;7.000;2023-07-31T05:21:46;15.70;99.90
47616;DHT22;69146;52.266;7.000;2023-07-31T05:24:31;15.80;99.90
47616;DHT22;69146;52.266;7.000;2023-07-31T05:27:15;15.70;99.90
47616;DHT22;69146;52.266;7.000;2023-07-31T05:30:03;15.70;99.90
47616;DHT22;69146;52.266;7.000;2023-07-31T05:32:47;15.70;99.90
47616;DHT22;69146;52.266;7.000;2023-07-31T05:35:33;15.70;99.90
47616;DHT22;69146;52.266;7.000;2023-07-31T05:38:18;15.60;99.90
47616;DHT22;69146;52.266;7.000;2023-07-31T05:41:02;15.60;99.90
47616;DHT22;69146;52.266;7.000;2023-07-31T05:43:46;15.60;99.90
47616;DHT22;69146;52.266;7.000;2023-07-31T05:46:31;15.60;99.90
47616;DHT22;69146;52.266;7.000;2023-07-31T05:49:15;15.70;99.90
47616;DHT22;69146;52.266;7.000;2023-07-31T05:52:01;15.70;99.90
47616;DHT22;69146;52.266;7.000;2023-07-31T05:54:45;15.70;99.90
47616;DHT22;69146;52.266;7.000;2023-07-31T05:57:30;15.70;99.90
47616;DHT22;69146;52.266;7.000;2023-07-31T06:00:14;15.70;99.90
47616;DHT22;69146;52.266;7.000;2023-07-31T06:02:59;15.70;99.90
47616;DHT22;69146;52.266;7.000;2023-07-31T06:05:43;15.70;99.90
47616;DHT22;69146;52.266;7.000;2023-07-31T06:08:29;15.70;99.90
47616;DHT22;69146;52.266;7.000;2023-07-31T06:11:13;15.70;99.90
47616;DHT22;69146;52.266;7.000;2023-07-31T06:13:58;15.70;99.90
47616;DHT22;69146;52.266;7.000;2023-07-31T06:16:42;15.70;99.90
47616;DHT22;69146;52.266;7.000;2023-07-31T06:19:28;15.70;99.90
47616;DHT22;69146;52.266;7.000;2023-07-31T06:22:13;15.80;99.90
47616;DHT22;69146;52.266;7.000;2023-07-31T06:24:58;15.90;99.90
47616;DHT22;69146;52.266;7.000;2023-07-31T06:27:43;15.90;99.90
47616;DHT22;69146;52.266;7.000;2023-07-31T06:30:27;16.00;99.90
47616;DHT22;69146;52.266;7.000;2023-07-31T06:33:12;16.00;99.90
47616;DHT22;69146;52.266;7.000;2023-07-31T06:35:56;16.00;99.90
47616;DHT22;69146;52.266;7.000;2023-07-31T06:38:41;16.00;99.90
47616;DHT22;69146;52.266;7.000;2023-07-31T06:41:27;16.00;99.90
47616;DHT22;69146;52.266;7.000;2023-07-31T06:44:12;15.90;99.90
47616;DHT22;69146;52.266;7.000;2023-07-31T06:46:57;15.90;99.90
47616;DHT22;69146;52.266;7.000;2023-07-31T06:49:41;15.90;99.90
47616;DHT22;69146;52.266;7.000;2023-07-31T06:52:26;15.90;99.90
47616;DHT22;69146;52.266;7.000;2023-07-31T06:55:20;15.90;99.90
47616;DHT22;69146;52.266;7.000;2023-07-31T06:58:06;15.80;99.90
47616;DHT22;69146;52.266;7.000;2023-07-31T07:00:51;15.80;99.90
47616;DHT22;69146;52.266;7.000;2023-07-31T07:03:35;15.80;99.90
47616;DHT22;69146;52.266;7.000;2023-07-31T07:06:20;15.80;99.90
47616;DHT22;69146;52.266;7.000;2023-07-31T07:09:04;15.80;99.90
47616;DHT22;69146;52.266;7.000;2023-07-31T07:11:50;15.90;99.90
47616;DHT22;69146;52.266;7.000;2023-07-31T07:14:36;15.90;99.90
47616;DHT22;69146;52.266;7.000;2023-07-31T07:17:20;15.90;99.90
47616;DHT22;69146;52.266;7.000;2023-07-31T07:20:05;15.90;99.90
47616;DHT22;69146;52.266;7.000;2023-07-31T07:22:50;16.00;99.90
47616;DHT22;69146;52.266;7.000;2023-07-31T07:25:37;16.00;99.90
47616;DHT22;69146;52.266;7.000;2023-07-31T07:28:21;16.00;99.90
47616;DHT22;69146;52.266;7.000;2023-07-31T07:31:07;16.00;99.90
47616;DHT22;69146;52.266;7.000;2023-07-31T07:33:52;16.10;99.90
47616;DHT22;69146;52.266;7.000;2023-07-31T07:36:36;16.10;99.90
47616;DHT22;69146;52.266;7.000;2023-07-31T07:39:22;16.10;99.90
47616;DHT22;69146;52.266;7.000;2023-07-31T07:42:06;16.10;99.90
47616;DHT22;69146;52.266;7.000;2023-07-31T07:44:50;16.20;99.90
47616;DHT22;69146;52.266;7.000;2023-07-31T07:47:37;16.20;99.90
47616;DHT22;69146;52.266;7.000;2023-07-31T07:50:21;16.20;99.90
47616;DHT22;69146;52.266;7.000;2023-07-31T07:53:06;16.20;99.90
47616;DHT22;69146;52.266;7.000;2023-07-31T07:55:52;16.30;99.90
47616;DHT22;69146;52.266;7.000;2023-07-31T07:58:37;16.20;99.90
47616;DHT22;69146;52.266;7.000;2023-07-31T08:01:21;16.20;99.90
47616;DHT22;69146;52.266;7.000;2023-07-31T08:04:07;16.30;99.90
47616;DHT22;69146;52.266;7.000;2023-07-31T08:06:52;16.30;99.90
47616;DHT22;69146;52.266;7.000;2023-07-31T08:09:37;16.30;99.90
47616;DHT22;69146;52.266;7.000;2023-07-31T08:12:21;16.30;99.90
47616;DHT22;69146;52.266;7.000;2023-07-31T08:15:06;16.40;99.90
47616;DHT22;69146;52.266;7.000;2023-07-31T08:17:50;16.50;99.90
47616;DHT22;69146;52.266;7.000;2023-07-31T08:20:36;16.50;99.90
47616;DHT22;69146;52.266;7.000;2023-07-31T08:23:21;16.50;99.90
47616;DHT22;69146;52.266;7.000;2023-07-31T08:26:05;16.60;99.90
47616;DHT22;69146;52.266;7.000;2023-07-31T08:28:50;16.60;99.90
47616;DHT22;69146;52.266;7.000;2023-07-31T08:31:34;16.60;99.90
47616;DHT22;69146;52.266;7.000;2023-07-31T08:34:18;16.70;99.90
47616;DHT22;69146;52.266;7.000;2023-07-31T08:37:05;16.70;99.90
47616;DHT22;69146;52.266;7.000;2023-07-31T08:39:49;16.70;99.90
47616;DHT22;69146;52.266;7.000;2023-07-31T08:42:34;16.80;99.90
47616;DHT22;69146;52.266;7.000;2023-07-31T08:45:19;16.90;99.90
47616;DHT22;69146;52.266;7.000;2023-07-31T08:48:03;16.90;99.90
47616;DHT22;69146;52.266;7.000;2023-07-31T08:50:48;16.90;99.90
47616;DHT22;69146;52.266;7.000;2023-07-31T08:53:34;16.80;99.90
47616;DHT22;69146;52.266;7.000;2023-07-31T08:56:19;16.80;99.90
47616;DHT22;69146;52.266;7.000;2023-07-31T08:59:04;16.80;99.90
47616;DHT22;69146;52.266;7.000;2023-07-31T09:01:49;16.80;99.90
47616;DHT22;69146;52.266;7.000;2023-07-31T09:04:34;16.80;99.90
47616;DHT22;69146;52.266;7.000;2023-07-31T09:07:18;16.90;99.90
47616;DHT22;69146;52.266;7.000;2023-07-31T09:10:05;16.90;99.90
47616;DHT22;69146;52.266;7.000;2023-07-31T09:12:50;16.90;99.90
47616;DHT22;69146;52.266;7.000;2023-07-31T09:15:35;17.00;99.90
47616;DHT22;69146;52.266;7.000;2023-07-31T09:18:19;17.00;99.90
47616;DHT22;69146;52.266;7.000;2023-07-31T09:21:06;17.00;99.90
47616;DHT22;69146;52.266;7.000;2023-07-31T09:23:52;17.00;99.90
47616;DHT22;69146;52.266;7.000;2023-07-31T09:26:39;17.00;99.90
47616;DHT22;69146;52.266;7.000;2023-07-31T09:29:24;17.10;99.90
47616;DHT22;69146;52.266;7.000;2023-07-31T09:32:14;17.00;99.90
47616;DHT22;69146;52.266;7.000;2023-07-31T09:34:59;17.10;99.90
47616;DHT22;69146;52.266;7.000;2023-07-31T09:37:44;17.10;99.90
47616;DHT22;69146;52.266;7.000;2023-07-31T09:40:32;17.10;99.90
47616;DHT22;69146;52.266;7.000;2023-07-31T09:43:18;17.20;99.90
47616;DHT22;69146;52.266;7.000;2023-07-31T09:46:13;17.20;99.90
47616;DHT22;69146;52.266;7.000;2023-07-31T09:49:04;17.20;99.90
47616;DHT22;69146;52.266;7.000;2023-07-31T09:51:50;17.20;99.90
47616;DHT22;69146;52.266;7.000;2023-07-31T09:54:34;17.30;99.90
47616;DHT22;69146;52.266;7.000;2023-07-31T09:57:19;17.30;99.90
47616;DHT22;69146;52.266;7.000;2023-07-31T10:00:08;17.30;99.90
47616;DHT22;69146;52.266;7.000;2023-07-31T10:02:53;17.30;99.90
47616;DHT22;69146;52.266;7.000;2023-07-31T10:05:40;17.30;99.90
47616;DHT22;69146;52.266;7.000;2023-07-31T10:08:27;17.30;99.90
47616;DHT22;69146;52.266;7.000;2023-07-31T10:11:13;17.40;99.90
47616;DHT22;69146;52.266;7.000;2023-07-31T10:13:58;17.40;99.90
47616;DHT22;69146;52.266;7.000;2023-07-31T10:16:44;17.40;99.90
47616;DHT22;69146;52.266;7.000;2023-07-31T10:19:28;17.40;99.90
47616;DHT22;69146;52.266;7.000;2023-07-31T10:22:14;17.50;99.90
47616;DHT22;69146;52.266;7.000;2023-07-31T10:24:59;17.50;99.90
47616;DHT22;69146;52.266;7.000;2023-07-31T10:27:44;17.50;99.90
47616;DHT22;69146;52.266;7.000;2023-07-31T10:30:31;17.50;99.90
47616;DHT22;69146;52.266;7.000;2023-07-31T10:33:17;17.50;99.90
47616;DHT22;69146;52.266;7.000;2023-07-31T10:36:13;17.50;99.90
47616;DHT22;69146;52.266;7.000;2023-07-31T10:38:58;17.50;99.90
47616;DHT22;69146;52.266;7.000;2023-07-31T10:41:43;17.50;99.90
47616;DHT22;69146;52.266;7.000;2023-07-31T10:44:27;17.50;99.90
47616;DHT22;69146;52.266;7.000;2023-07-31T10:47:14;17.50;99.90
47616;DHT22;69146;52.266;7.000;2023-07-31T10:50:12;17.50;99.90
47616;DHT22;69146;52.266;7.000;2023-07-31T10:52:56;17.50;99.90
47616;DHT22;69146;52.266;7.000;2023-07-31T10:55:44;17.50;99.90
47616;DHT22;69146;52.266;7.000;2023-07-31T10:58:30;17.50;99.90
47616;DHT22;69146;52.266;7.000;2023-07-31T11:01:15;17.60;99.90
47616;DHT22;69146;52.266;7.000;2023-07-31T11:04:00;17.60;99.90
47616;DHT22;69146;52.266;7.000;2023-07-31T11:06:59;17.70;99.90
47616;DHT22;69146;52.266;7.000;2023-07-31T11:09:44;17.70;99.90
47616;DHT22;69146;52.266;7.000;2023-07-31T11:15:13;17.80;99.90
47616;DHT22;69146;52.266;7.000;2023-07-31T11:17:59;17.80;99.90
47616;DHT22;69146;52.266;7.000;2023-07-31T11:20:44;17.80;99.90
47616;DHT22;69146;52.266;7.000;2023-07-31T11:23:30;17.90;99.90
47616;DHT22;69146;52.266;7.000;2023-07-31T11:26:14;18.00;99.90
47616;DHT22;69146;52.266;7.000;2023-07-31T11:28:59;18.00;99.90
47616;DHT22;69146;52.266;7.000;2023-07-31T11:31:43;17.90;99.90
47616;DHT22;69146;52.266;7.000;2023-07-31T11:34:28;17.90;99.90
47616;DHT22;69146;52.266;7.000;2023-07-31T11:37:12;18.00;99.90
47616;DHT22;69146;52.266;7.000;2023-07-31T11:40:02;18.00;99.90
47616;DHT22;69146;52.266;7.000;2023-07-31T11:42:46;17.90;99.90
47616;DHT22;69146;52.266;7.000;2023-07-31T11:45:30;17.90;99.90
47616;DHT22;69146;52.266;7.000;2023-07-31T11:48:18;17.80;99.90
47616;DHT22;69146;52.266;7.000;2023-07-31T11:51:04;17.80;99.90
47616;DHT22;69146;52.266;7.000;2023-07-31T11:53:49;17.70;99.90
47616;DHT22;69146;52.266;7.000;2023-07-31T11:56:36;17.70;99.90
47616;DHT22;69146;52.266;7.000;2023-07-31T11:59:21;17.70;99.90
47616;DHT22;69146;52.266;7.000;2023-07-31T12:02:05;17.80;99.90
47616;DHT22;69146;52.266;7.000;2023-07-31T12:04:50;17.80;99.90
47616;DHT22;69146;52.266;7.000;2023-07-31T12:10:39;18.00;99.90
47616;DHT22;69146;52.266;7.000;2023-07-31T12:13:26;18.10;99.90
47616;DHT22;69146;52.266;7.000;2023-07-31T12:16:11;18.10;99.90
47616;DHT22;69146;52.266;7.000;2023-07-31T12:18:55;18.20;99.90
47616;DHT22;69146;52.266;7.000;2023-07-31T12:21:39;18.40;99.90
47616;DHT22;69146;52.266;7.000;2023-07-31T12:24:23;18.70;99.90
47616;DHT22;69146;52.266;7.000;2023-07-31T12:27:09;18.90;99.90
47616;DHT22;69146;52.266;7.000;2023-07-31T12:29:54;19.10;99.90
47616;DHT22;69146;52.266;7.000;2023-07-31T12:32:39;19.20;99.90
47616;DHT22;69146;52.266;7.000;2023-07-31T12:35:24;19.20;99.90
47616;DHT22;69146;52.266;7.000;2023-07-31T12:38:08;19.00;99.90
47616;DHT22;69146;52.266;7.000;2023-07-31T12:40:53;19.00;99.90
47616;DHT22;69146;52.266;7.000;2023-07-31T12:43:38;18.90;99.90
47616;DHT22;69146;52.266;7.000;2023-07-31T12:46:24;18.80;99.90
47616;DHT22;69146;52.266;7.000;2023-07-31T12:49:09;18.80;99.90
47616;DHT22;69146;52.266;7.000;2023-07-31T12:51:53;18.70;99.90
47616;DHT22;69146;52.266;7.000;2023-07-31T12:54:38;18.60;99.90
47616;DHT22;69146;52.266;7.000;2023-07-31T12:57:23;18.50;99.90
47616;DHT22;69146;52.266;7.000;2023-07-31T13:00:07;18.40;99.90
47616;DHT22;69146;52.266;7.000;2023-07-31T13:02:53;18.30;99.90
47616;DHT22;69146;52.266;7.000;2023-07-31T13:05:37;18.30;99.90
47616;DHT22;69146;52.266;7.000;2023-07-31T13:08:22;18.20;99.90
47616;DHT22;69146;52.266;7.000;2023-07-31T13:11:06;18.20;99.90
47616;DHT22;69146;52.266;7.000;2023-07-31T13:13:51;18.20;99.90
47616;DHT22;69146;52.266;7.000;2023-07-31T13:16:35;18.10;99.90
47616;DHT22;69146;52.266;7.000;2023-07-31T13:19:21;18.10;99.90
47616;DHT22;69146;52.266;7.000;2023-07-31T13:22:06;18.10;99.90
47616;DHT22;69146;52.266;7.000;2023-07-31T13:24:50;18.20;99.90
47616;DHT22;69146;52.266;7.000;2023-07-31T13:27:35;18.30;99.90
47616;DHT22;69146;52.266;7.000;2023-07-31T13:30:19;18.40;99.90
47616;DHT22;69146;52.266;7.000;2023-07-31T13:33:04;18.60;99.90
47616;DHT22;69146;52.266;7.000;2023-07-31T13:35:49;18.60;99.90
47616;DHT22;69146;52.266;7.000;2023-07-31T13:38:34;18.70;99.90
47616;DHT22;69146;52.266;7.000;2023-07-31T13:41:19;18.70;99.90
47616;DHT22;69146;52.266;7.000;2023-07-31T13:44:03;18.70;99.90
47616;DHT22;69146;52.266;7.000;2023-07-31T13:46:47;18.70;99.90
47616;DHT22;69146;52.266;7.000;2023-07-31T13:49:32;18.90;99.90
47616;DHT22;69146;52.266;7.000;2023-07-31T13:52:18;19.20;99.90
47616;DHT22;69146;52.266;7.000;2023-07-31T13:55:02;19.30;99.90
47616;DHT22;69146;52.266;7.000;2023-07-31T13:57:47;19.30;99.90
47616;DHT22;69146;52.266;7.000;2023-07-31T14:00:32;19.30;99.90
47616;DHT22;69146;52.266;7.000;2023-07-31T14:03:17;19.30;99.90
47616;DHT22;69146;52.266;7.000;2023-07-31T14:06:01;19.10;99.90
47616;DHT22;69146;52.266;7.000;2023-07-31T14:08:47;18.90;99.90
47616;DHT22;69146;52.266;7.000;2023-07-31T14:11:31;18.60;99.90
47616;DHT22;69146;52.266;7.000;2023-07-31T14:14:16;18.50;99.90
47616;DHT22;69146;52.266;7.000;2023-07-31T14:17:02;18.50;99.90
47616;DHT22;69146;52.266;7.000;2023-07-31T14:19:46;18.50;99.90
47616;DHT22;69146;52.266;7.000;2023-07-31T14:22:31;18.60;99.90
47616;DHT22;69146;52.266;7.000;2023-07-31T14:25:18;19.10;99.90
47616;DHT22;69146;52.266;7.000;2023-07-31T14:28:03;19.60;99.90
47616;DHT22;69146;52.266;7.000;2023-07-31T14:30:47;19.70;99.90
47616;DHT22;69146;52.266;7.000;2023-07-31T14:33:32;19.70;99.90
47616;DHT22;69146;52.266;7.000;2023-07-31T14:36:16;19.70;99.90
47616;DHT22;69146;52.266;7.000;2023-07-31T14:39:01;19.70;99.90
47616;DHT22;69146;52.266;7.000;2023-07-31T14:41:46;19.80;99.90
47616;DHT22;69146;52.266;7.000;2023-07-31T14:44:32;19.70;99.90
47616;DHT22;69146;52.266;7.000;2023-07-31T14:47:16;19.70;99.90
47616;DHT22;69146;52.266;7.000;2023-07-31T14:50:01;19.60;99.90
47616;DHT22;69146;52.266;7.000;2023-07-31T14:52:45;19.60;99.90
47616;DHT22;69146;52.266;7.000;2023-07-31T14:55:29;19.60;99.90
47616;DHT22;69146;52.266;7.000;2023-07-31T14:58:15;19.70;99.90
47616;DHT22;69146;52.266;7.000;2023-07-31T15:01:01;19.60;99.90
47616;DHT22;69146;52.266;7.000;2023-07-31T15:03:45;19.50;99.90
47616;DHT22;69146;52.266;7.000;2023-07-31T15:06:30;19.30;99.90
47616;DHT22;69146;52.266;7.000;2023-07-31T15:09:14;19.00;99.90
47616;DHT22;69146;52.266;7.000;2023-07-31T15:11:58;18.80;99.90
47616;DHT22;69146;52.266;7.000;2023-07-31T15:14:44;18.70;99.90
47616;DHT22;69146;52.266;7.000;2023-07-31T15:17:29;18.50;99.90
47616;DHT22;69146;52.266;7.000;2023-07-31T15:20:14;18.30;99.90
47616;DHT22;69146;52.266;7.000;2023-07-31T15:22:58;18.20;99.90
47616;DHT22;69146;52.266;7.000;2023-07-31T15:25:42;18.20;99.90
47616;DHT22;69146;52.266;7.000;2023-07-31T15:28:27;18.10;99.90
47616;DHT22;69146;52.266;7.000;2023-07-31T15:31:13;18.00;99.90
47616;DHT22;69146;52.266;7.000;2023-07-31T15:33:58;18.00;99.90
47616;DHT22;69146;52.266;7.000;2023-07-31T15:36:42;18.00;99.90
47616;DHT22;69146;52.266;7.000;2023-07-31T15:39:26;18.00;99.90
47616;DHT22;69146;52.266;7.000;2023-07-31T15:42:11;18.00;99.90
47616;DHT22;69146;52.266;7.000;2023-07-31T15:44:55;17.90;99.90
47616;DHT22;69146;52.266;7.000;2023-07-31T15:47:41;18.00;99.90
47616;DHT22;69146;52.266;7.000;2023-07-31T15:50:26;18.00;99.90
47616;DHT22;69146;52.266;7.000;2023-07-31T15:53:10;18.00;99.90
47616;DHT22;69146;52.266;7.000;2023-07-31T15:55:55;18.00;99.90
47616;DHT22;69146;52.266;7.000;2023-07-31T15:58:43;18.10;99.90
47616;DHT22;69146;52.266;7.000;2023-07-31T16:01:27;18.10;99.90
47616;DHT22;69146;52.266;7.000;2023-07-31T16:04:13;18.10;99.90
47616;DHT22;69146;52.266;7.000;2023-07-31T16:06:58;18.10;99.90
47616;DHT22;69146;52.266;7.000;2023-07-31T16:09:42;18.10;99.90
47616;DHT22;69146;52.266;7.000;2023-07-31T16:12:27;18.10;99.90
47616;DHT22;69146;52.266;7.000;2023-07-31T16:15:11;18.00;99.90
47616;DHT22;69146;52.266;7.000;2023-07-31T16:17:56;18.10;99.90
47616;DHT22;69146;52.266;7.000;2023-07-31T16:20:41;18.00;99.90
47616;DHT22;69146;52.266;7.000;2023-07-31T16:23:26;18.00;99.90
47616;DHT22;69146;52.266;7.000;2023-07-31T16:26:10;18.00;99.90
47616;DHT22;69146;52.266;7.000;2023-07-31T16:28:55;18.00;99.90
47616;DHT22;69146;52.266;7.000;2023-07-31T16:31:39;18.00;99.90
47616;DHT22;69146;52.266;7.000;2023-07-31T16:34:23;18.00;99.90
47616;DHT22;69146;52.266;7.000;2023-07-31T16:37:12;18.10;99.90
47616;DHT22;69146;52.266;7.000;2023-07-31T16:39:57;18.00;99.90
47616;DHT22;69146;52.266;7.000;2023-07-31T16:42:41;18.00;99.90
47616;DHT22;69146;52.266;7.000;2023-07-31T16:45:25;18.00;99.90
47616;DHT22;69146;52.266;7.000;2023-07-31T16:48:10;18.00;99.90
47616;DHT22;69146;52.266;7.000;2023-07-31T16:50:54;18.00;99.90
47616;DHT22;69146;52.266;7.000;2023-07-31T16:53:40;18.00;99.90
47616;DHT22;69146;52.266;7.000;2023-07-31T16:56:24;18.00;99.90
47616;DHT22;69146;52.266;7.000;2023-07-31T16:59:09;18.00;99.90
47616;DHT22;69146;52.266;7.000;2023-07-31T17:01:53;17.90;99.90
47616;DHT22;69146;52.266;7.000;2023-07-31T17:04:38;17.90;99.90
47616;DHT22;69146;52.266;7.000;2023-07-31T17:07:22;17.90;99.90
47616;DHT22;69146;52.266;7.000;2023-07-31T17:10:08;17.80;99.90
47616;DHT22;69146;52.266;7.000;2023-07-31T17:12:53;17.90;99.90
47616;DHT22;69146;52.266;7.000;2023-07-31T17:15:38;17.80;99.90
47616;DHT22;69146;52.266;7.000;2023-07-31T17:18:22;17.80;99.90
47616;DHT22;69146;52.266;7.000;2023-07-31T17:21:07;17.80;99.90
47616;DHT22;69146;52.266;7.000;2023-07-31T17:23:51;17.80;99.90
47616;DHT22;69146;52.266;7.000;2023-07-31T17:26:37;17.80;99.90
47616;DHT22;69146;52.266;7.000;2023-07-31T17:29:26;17.90;99.90